Time;durP1;ratioP1;P1;durP2;ratioP2;P2;SDS_P1;SDS_P2;PMS_P1;PMS_P2;Temp;Humidity;BMP_temperature;BMP_pressure;BME280_temperature;BME280_humidity;BME280_pressure;Samples;Min_cycle;Max_cycle;Signal;HPM_P1;HPM_P2
2024/01/21 00:01:29;;;;;;;17.70;7.10;;;;;;;;;;5055688;28;20045;-84
2024/01/21 00:03:55;;;;;;;19.67;6.57;;;;;;;;;;5038386;28;20052;-81
2024/01/21 00:06:21;;;;;;;17.45;7.32;;;;;;;;;;5038256;28;20481;-82
2024/01/21 00:08:48;;;;;;;19.25;6.78;;;;;;;;;;5037779;28;20048;-84
2024/01/21 00:11:14;;;;;;;16.67;6.97;;;;;;;;;;5056066;28;20086;-83
2024/01/21 00:13:40;;;;;;;17.48;6.97;;;;;;;;;;5056438;28;20110;-80
2024/01/21 00:16:06;;;;;;;18.60;7.30;;;;;;;;;;5021728;28;20091;-81
2024/01/21 00:18:32;;;;;;;20.15;7.00;;;;;;;;;;5055319;28;20129;-82
2024/01/21 00:20:58;;;;;;;19.02;8.13;;;;;;;;;;5038009;28;20052;-82
2024/01/21 00:23:24;;;;;;;21.85;8.25;;;;;;;;;;5037404;28;20056;-82
2024/01/21 00:25:50;;;;;;;21.50;8.48;;;;;;;;;;5039052;28;20052;-82
2024/01/21 00:28:16;;;;;;;22.60;8.40;;;;;;;;;;5055604;28;20511;-82
2024/01/21 00:30:42;;;;;;;22.85;8.73;;;;;;;;;;5059355;28;20107;-79
2024/01/21 00:33:08;;;;;;;21.75;8.75;;;;;;;;;;5060738;28;20045;-83
2024/01/21 00:35:35;;;;;;;19.17;8.38;;;;;;;;;;5043083;28;20194;-81
2024/01/21 00:38:02;;;;;;;18.10;7.68;;;;;;;;;;5058342;28;20401;-82
2024/01/21 00:40:28;;;;;;;19.50;7.95;;;;;;;;;;5039837;28;20080;-82
2024/01/21 00:42:59;;;;;;;18.80;7.97;;;;;;;;;;5024064;28;20060;-82
2024/01/21 00:45:25;;;;;;;19.23;7.25;;;;;;;;;;5045169;28;20060;-80
2024/01/21 00:47:51;;;;;;;19.37;6.90;;;;;;;;;;5060161;28;20114;-82
2024/01/21 00:50:17;;;;;;;17.88;7.68;;;;;;;;;;5060347;28;20294;-83
2024/01/21 00:52:43;;;;;;;16.60;7.07;;;;;;;;;;5024837;28;20072;-83
2024/01/21 00:55:09;;;;;;;20.25;7.28;;;;;;;;;;5061646;28;20045;-83
2024/01/21 00:57:36;;;;;;;21.60;7.32;;;;;;;;;;5044267;28;20128;-76
2024/01/21 01:00:02;;;;;;;17.83;6.80;;;;;;;;;;5062787;28;20048;-81
2024/01/21 01:02:28;;;;;;;14.95;6.65;;;;;;;;;;5043593;28;20124;-80
2024/01/21 01:04:54;;;;;;;17.00;6.47;;;;;;;;;;5045144;28;20080;-81
2024/01/21 01:07:20;;;;;;;18.70;7.13;;;;;;;;;;5042852;28;20106;-83
2024/01/21 01:09:46;;;;;;;15.00;6.40;;;;;;;;;;5041339;28;20481;-81
2024/01/21 01:12:12;;;;;;;14.88;6.13;;;;;;;;;;5045768;28;20053;-83
2024/01/21 01:14:41;;;;;;;18.50;6.10;;;;;;;;;;5042516;28;20045;-77
2024/01/21 01:17:08;;;;;;;15.25;6.18;;;;;;;;;;5059055;28;20045;-80
2024/01/21 01:19:34;;;;;;;17.80;6.25;;;;;;;;;;5059119;28;20075;-84
2024/01/21 01:22:01;;;;;;;15.38;6.72;;;;;;;;;;5026874;28;20127;-84
2024/01/21 01:24:27;;;;;;;13.37;5.17;;;;;;;;;;5043827;28;20045;-84
2024/01/21 01:26:53;;;;;;;13.38;5.63;;;;;;;;;;5042308;28;20284;-82
2024/01/21 01:29:19;;;;;;;14.43;5.72;;;;;;;;;;5023990;28;20052;-79
2024/01/21 01:31:45;;;;;;;16.13;6.28;;;;;;;;;;5057982;28;20497;-82
2024/01/21 01:34:12;;;;;;;17.45;5.18;;;;;;;;;;5026508;28;20055;-82
2024/01/21 01:36:39;;;;;;;10.77;4.05;;;;;;;;;;5039764;28;20066;-81
2024/01/21 01:39:07;;;;;;;15.10;4.82;;;;;;;;;;5056985;28;20108;-79
2024/01/21 01:41:33;;;;;;;11.40;5.00;;;;;;;;;;5060389;28;20049;-81
2024/01/21 01:43:59;;;;;;;11.52;4.30;;;;;;;;;;5057402;28;20056;-82
2024/01/21 01:46:25;;;;;;;13.95;5.10;;;;;;;;;;5059859;28;20463;-82
2024/01/21 01:48:51;;;;;;;13.57;5.13;;;;;;;;;;5039641;28;20052;-83
2024/01/21 01:51:18;;;;;;;14.73;5.30;;;;;;;;;;5037974;28;20485;-80
2024/01/21 01:53:44;;;;;;;12.25;4.47;;;;;;;;;;5039669;28;20493;-81
2024/01/21 01:56:11;;;;;;;13.53;3.90;;;;;;;;;;5038992;28;20048;-83
2024/01/21 01:58:38;;;;;;;16.55;4.57;;;;;;;;;;5023214;28;20049;-81
2024/01/21 02:01:04;;;;;;;14.90;4.40;;;;;;;;;;5054763;28;20088;-80
2024/01/21 02:03:31;;;;;;;21.13;5.72;;;;;;;;;;5056727;28;20100;-82
2024/01/21 02:05:57;;;;;;;14.13;5.00;;;;;;;;;;5020566;28;20060;-82
2024/01/21 02:08:23;;;;;;;14.20;4.38;;;;;;;;;;5055790;28;20103;-84
2024/01/21 02:10:49;;;;;;;12.27;3.45;;;;;;;;;;5055292;28;20059;-80
2024/01/21 02:13:15;;;;;;;16.48;4.22;;;;;;;;;;5056827;28;20096;-84
2024/01/21 02:15:42;;;;;;;12.53;3.27;;;;;;;;;;5057214;28;20045;-82
2024/01/21 02:18:08;;;;;;;13.77;4.15;;;;;;;;;;5037507;28;20294;-82
2024/01/21 02:20:35;;;;;;;13.40;3.65;;;;;;;;;;5056978;28;20132;-81
2024/01/21 02:23:04;;;;;;;11.00;3.40;;;;;;;;;;5057049;28;20091;-79
2024/01/21 02:25:30;;;;;;;9.20;3.13;;;;;;;;;;5064778;28;20045;-80
2024/01/21 02:27:56;;;;;;;15.07;3.80;;;;;;;;;;5059785;28;20459;-77
2024/01/21 02:30:22;;;;;;;9.52;2.65;;;;;;;;;;5059724;28;20059;-76
2024/01/21 02:32:48;;;;;;;16.10;3.60;;;;;;;;;;5060986;28;20106;-80
2024/01/21 02:35:14;;;;;;;11.90;3.40;;;;;;;;;;5058175;28;20128;-80
2024/01/21 02:37:41;;;;;;;15.38;3.53;;;;;;;;;;5056322;28;20044;-82
2024/01/21 02:40:07;;;;;;;8.65;3.13;;;;;;;;;;5054963;28;20382;-83
2024/01/21 02:42:33;;;;;;;8.77;2.90;;;;;;;;;;5037398;28;20048;-82
2024/01/21 02:44:59;;;;;;;8.30;2.45;;;;;;;;;;5021030;28;20060;-81
2024/01/21 02:47:26;;;;;;;7.53;2.80;;;;;;;;;;5055176;28;20045;-82
2024/01/21 02:49:52;;;;;;;10.02;2.58;;;;;;;;;;5054285;28;20131;-79
2024/01/21 02:52:18;;;;;;;9.15;2.55;;;;;;;;;;5054541;28;20048;-80
2024/01/21 02:54:44;;;;;;;7.45;2.63;;;;;;;;;;5037266;28;20094;-82
2024/01/21 02:57:10;;;;;;;8.32;2.40;;;;;;;;;;5040719;28;20049;-81
2024/01/21 02:59:36;;;;;;;10.15;2.25;;;;;;;;;;5062035;28;20052;-82
2024/01/21 03:02:02;;;;;;;10.18;2.65;;;;;;;;;;5024877;28;20045;-78
2024/01/21 03:04:28;;;;;;;8.93;2.42;;;;;;;;;;5038443;28;20044;-83
2024/01/21 03:06:55;;;;;;;9.23;2.40;;;;;;;;;;5039718;28;20053;-83
2024/01/21 03:09:21;;;;;;;8.13;2.22;;;;;;;;;;5040953;28;20112;-78
2024/01/21 03:11:48;;;;;;;6.68;1.67;;;;;;;;;;5059049;28;20120;-78
2024/01/21 03:14:14;;;;;;;5.97;1.65;;;;;;;;;;5059156;28;20167;-79
2024/01/21 03:16:40;;;;;;;5.32;1.70;;;;;;;;;;5024888;28;20088;-77
2024/01/21 03:19:06;;;;;;;6.82;1.60;;;;;;;;;;5040592;28;20075;-76
2024/01/21 03:21:32;;;;;;;7.20;1.27;;;;;;;;;;5057623;28;20045;-77
2024/01/21 03:23:58;;;;;;;8.07;2.08;;;;;;;;;;5023451;28;20040;-79
2024/01/21 03:26:24;;;;;;;7.53;2.13;;;;;;;;;;5023982;28;20099;-78
2024/01/21 03:28:50;;;;;;;6.05;1.67;;;;;;;;;;5058028;28;20060;-78
2024/01/21 03:31:19;;;;;;;8.02;1.90;;;;;;;;;;5022319;28;20060;-76
2024/01/21 03:33:45;;;;;;;4.90;1.50;;;;;;;;;;5057196;28;20064;-79
2024/01/21 03:36:11;;;;;;;7.85;1.92;;;;;;;;;;5039451;28;20107;-78
2024/01/21 03:38:39;;;;;;;5.07;1.05;;;;;;;;;;5057244;28;20041;-77
2024/01/21 03:41:05;;;;;;;6.63;1.73;;;;;;;;;;5039088;28;20045;-79
2024/01/21 03:43:31;;;;;;;5.35;1.27;;;;;;;;;;5039341;28;20186;-76
2024/01/21 03:45:57;;;;;;;6.03;1.25;;;;;;;;;;5056541;28;20496;-79
2024/01/21 03:48:23;;;;;;;6.28;1.42;;;;;;;;;;5058039;28;20073;-78
2024/01/21 03:50:50;;;;;;;8.73;1.83;;;;;;;;;;5039254;28;20061;-77
2024/01/21 03:53:16;;;;;;;9.23;1.67;;;;;;;;;;5057156;28;20059;-77
2024/01/21 03:55:42;;;;;;;3.75;1.20;;;;;;;;;;5038964;28;20430;-79
2024/01/21 03:58:08;;;;;;;5.00;1.63;;;;;;;;;;5038872;28;20075;-77
2024/01/21 04:00:34;;;;;;;6.88;1.85;;;;;;;;;;5039064;28;20045;-78
2024/01/21 04:03:00;;;;;;;6.30;1.50;;;;;;;;;;5039397;28;20053;-81
2024/01/21 04:05:26;;;;;;;7.18;1.90;;;;;;;;;;5022994;28;20472;-78
2024/01/21 04:07:52;;;;;;;5.78;1.20;;;;;;;;;;5038956;28;20057;-78
2024/01/21 04:10:18;;;;;;;4.97;1.10;;;;;;;;;;5056551;28;20044;-79
2024/01/21 04:12:44;;;;;;;5.10;1.35;;;;;;;;;;5039441;28;20083;-76
2024/01/21 04:15:10;;;;;;;4.63;1.42;;;;;;;;;;5039081;28;20053;-78
2024/01/21 04:17:36;;;;;;;4.80;1.10;;;;;;;;;;5021586;28;20060;-79
2024/01/21 04:20:07;;;;;;;6.25;1.50;;;;;;;;;;5039296;28;20385;-80
2024/01/21 04:22:33;;;;;;;4.35;1.20;;;;;;;;;;5056443;28;20049;-78
2024/01/21 04:24:59;;;;;;;4.28;1.20;;;;;;;;;;5038871;28;20056;-79
2024/01/21 04:27:25;;;;;;;4.78;1.02;;;;;;;;;;5022503;28;20045;-78
2024/01/21 04:29:51;;;;;;;6.32;1.73;;;;;;;;;;5022051;28;20069;-77
2024/01/21 04:32:18;;;;;;;5.90;1.30;;;;;;;;;;5038603;28;20135;-79
2024/01/21 04:34:44;;;;;;;4.97;0.98;;;;;;;;;;5038648;28;20132;-79
2024/01/21 04:37:12;;;;;;;4.22;1.05;;;;;;;;;;5022840;28;20104;-79
2024/01/21 04:39:38;;;;;;;4.13;1.10;;;;;;;;;;5021952;28;20085;-79
2024/01/21 04:42:04;;;;;;;3.47;0.90;;;;;;;;;;5055880;28;20436;-78
2024/01/21 04:44:30;;;;;;;4.47;1.08;;;;;;;;;;5037943;28;20428;-79
2024/01/21 04:46:56;;;;;;;7.43;1.45;;;;;;;;;;5055903;28;20055;-79
2024/01/21 04:49:22;;;;;;;4.05;0.77;;;;;;;;;;5037964;28;20485;-78
2024/01/21 04:51:48;;;;;;;4.63;1.27;;;;;;;;;;5056504;28;20045;-80
2024/01/21 04:54:14;;;;;;;3.60;0.90;;;;;;;;;;5037853;28;20061;-79
2024/01/21 04:56:41;;;;;;;5.95;1.67;;;;;;;;;;5055401;28;20049;-79
2024/01/21 04:59:07;;;;;;;3.25;0.82;;;;;;;;;;5037742;28;20052;-78
2024/01/21 05:01:33;;;;;;;4.40;1.35;;;;;;;;;;5038441;28;20128;-81
2024/01/21 05:03:59;;;;;;;3.70;1.10;;;;;;;;;;5055694;28;20122;-76
2024/01/21 05:06:26;;;;;;;3.90;1.13;;;;;;;;;;5020757;28;20131;-78
2024/01/21 05:08:52;;;;;;;4.18;1.00;;;;;;;;;;5054947;28;20056;-79
2024/01/21 05:11:18;;;;;;;5.07;1.10;;;;;;;;;;5054783;28;20045;-78
2024/01/21 05:13:44;;;;;;;6.25;1.42;;;;;;;;;;5038227;28;20080;-78
2024/01/21 05:16:10;;;;;;;5.65;1.45;;;;;;;;;;5055391;28;20432;-78
2024/01/21 05:18:38;;;;;;;6.47;1.50;;;;;;;;;;5037604;28;20503;-78
2024/01/21 05:21:05;;;;;;;4.72;1.58;;;;;;;;;;5055120;28;20052;-78
2024/01/21 05:23:31;;;;;;;5.50;1.13;;;;;;;;;;5020925;28;20051;-78
2024/01/21 05:25:57;;;;;;;6.22;1.63;;;;;;;;;;5054740;28;20040;-79
2024/01/21 05:28:23;;;;;;;7.15;1.75;;;;;;;;;;5054811;28;20460;-79
2024/01/21 05:30:49;;;;;;;5.25;1.30;;;;;;;;;;5054871;28;20057;-78
2024/01/21 05:33:15;;;;;;;4.35;1.42;;;;;;;;;;5021191;28;20057;-78
2024/01/21 05:35:41;;;;;;;4.85;1.17;;;;;;;;;;5054563;28;20067;-78
2024/01/21 05:38:08;;;;;;;4.30;1.23;;;;;;;;;;5054616;28;20041;-75
2024/01/21 05:40:35;;;;;;;11.63;1.98;;;;;;;;;;5054443;28;20052;-78
2024/01/21 05:43:01;;;;;;;6.57;2.20;;;;;;;;;;5036794;28;20053;-78
2024/01/21 05:45:28;;;;;;;6.13;1.95;;;;;;;;;;5036697;28;20048;-79
2024/01/21 05:47:54;;;;;;;6.80;1.70;;;;;;;;;;5037126;28;20137;-78
2024/01/21 05:50:20;;;;;;;5.72;2.08;;;;;;;;;;5020387;28;20144;-78
2024/01/21 05:52:46;;;;;;;4.13;1.17;;;;;;;;;;5036929;28;20049;-79
2024/01/21 05:55:12;;;;;;;5.70;2.10;;;;;;;;;;5036612;28;20044;-77
2024/01/21 05:57:38;;;;;;;6.40;1.90;;;;;;;;;;5020509;28;20343;-78
2024/01/21 06:00:04;;;;;;;7.43;1.92;;;;;;;;;;5054962;28;20048;-79
2024/01/21 06:02:32;;;;;;;5.38;1.90;;;;;;;;;;5036304;28;20053;-79
2024/01/21 06:04:58;;;;;;;6.53;2.53;;;;;;;;;;5053945;28;20052;-79
2024/01/21 06:07:24;;;;;;;7.18;2.10;;;;;;;;;;5036215;28;20117;-78
2024/01/21 06:09:50;;;;;;;7.38;2.00;;;;;;;;;;5036549;28;20471;-78
2024/01/21 06:12:16;;;;;;;6.68;2.25;;;;;;;;;;5036498;28;20045;-78
2024/01/21 06:14:44;;;;;;;7.35;2.10;;;;;;;;;;5053755;28;20180;-79
2024/01/21 06:17:10;;;;;;;6.50;2.47;;;;;;;;;;5036229;28;20413;-78
2024/01/21 06:19:36;;;;;;;6.05;2.15;;;;;;;;;;5036645;28;20459;-79
2024/01/21 06:22:02;;;;;;;6.18;2.00;;;;;;;;;;5037339;28;20048;-79
2024/01/21 06:24:28;;;;;;;5.70;1.88;;;;;;;;;;5020327;28;20070;-79
2024/01/21 06:26:57;;;;;;;9.13;2.35;;;;;;;;;;5036734;28;20049;-80
2024/01/21 06:29:25;;;;;;;9.82;3.45;;;;;;;;;;5036651;28;20045;-78
2024/01/21 06:31:51;;;;;;;7.63;2.47;;;;;;;;;;5036062;28;20489;-80
2024/01/21 06:34:17;;;;;;;8.27;2.20;;;;;;;;;;5054349;28;20095;-80
2024/01/21 06:36:43;;;;;;;8.43;2.95;;;;;;;;;;5036130;28;20079;-78
2024/01/21 06:39:09;;;;;;;7.75;2.42;;;;;;;;;;5053862;28;20056;-79
2024/01/21 06:41:35;;;;;;;6.85;2.70;;;;;;;;;;5053934;28;20052;-79
2024/01/21 06:44:02;;;;;;;8.98;2.38;;;;;;;;;;5035886;28;20045;-79
2024/01/21 06:46:28;;;;;;;7.40;2.40;;;;;;;;;;5054318;28;20094;-78
2024/01/21 06:48:54;;;;;;;9.25;3.20;;;;;;;;;;5053978;28;20049;-78
2024/01/21 06:51:32;;;;;;;7.22;2.70;;;;;;;;;;5035829;28;20060;-79
2024/01/21 06:54:03;;;;;;;7.47;2.22;;;;;;;;;;5054623;28;20393;-79
2024/01/21 06:56:29;;;;;;;7.55;2.38;;;;;;;;;;5036735;28;20049;-79
2024/01/21 06:58:55;;;;;;;9.57;2.42;;;;;;;;;;5053472;28;20041;-82
2024/01/21 07:01:21;;;;;;;6.30;1.90;;;;;;;;;;5054188;28;20562;-79
2024/01/21 07:03:47;;;;;;;9.10;3.05;;;;;;;;;;5019744;28;20056;-79
2024/01/21 07:06:13;;;;;;;7.40;2.42;;;;;;;;;;5035851;28;20049;-78
2024/01/21 07:08:40;;;;;;;6.75;3.00;;;;;;;;;;5036087;28;20045;-79
2024/01/21 07:11:09;;;;;;;7.75;3.20;;;;;;;;;;5035895;28;20131;-76
2024/01/21 07:13:35;;;;;;;9.15;3.42;;;;;;;;;;5019378;28;20083;-78
2024/01/21 07:16:02;;;;;;;9.93;3.90;;;;;;;;;;5019764;28;20052;-78
2024/01/21 07:18:28;;;;;;;8.13;3.97;;;;;;;;;;5053662;28;20485;-81
2024/01/21 07:20:54;;;;;;;7.78;2.90;;;;;;;;;;5053808;28;20458;-79
2024/01/21 07:23:20;;;;;;;6.60;2.35;;;;;;;;;;5019054;28;20127;-76
2024/01/21 07:25:47;;;;;;;8.18;3.20;;;;;;;;;;5018522;28;20041;-78
2024/01/21 07:28:13;;;;;;;7.68;2.50;;;;;;;;;;5019102;28;20492;-79
2024/01/21 07:30:39;;;;;;;7.95;2.67;;;;;;;;;;5018247;28;20057;-76
2024/01/21 07:33:05;;;;;;;7.75;2.85;;;;;;;;;;5053277;28;20132;-79
2024/01/21 07:35:31;;;;;;;7.22;2.03;;;;;;;;;;5035391;28;20048;-79
2024/01/21 07:37:57;;;;;;;7.55;2.63;;;;;;;;;;5053613;28;20060;-77
2024/01/21 07:40:24;;;;;;;6.22;2.45;;;;;;;;;;5036467;28;20048;-78
2024/01/21 07:42:50;;;;;;;9.55;3.75;;;;;;;;;;5019686;28;20045;-79
2024/01/21 07:45:16;;;;;;;9.75;3.63;;;;;;;;;;5054163;28;20041;-80
2024/01/21 07:47:42;;;;;;;9.55;2.97;;;;;;;;;;5019949;28;20053;-79
2024/01/21 07:50:08;;;;;;;9.15;3.60;;;;;;;;;;5019826;28;20075;-80
2024/01/21 07:52:34;;;;;;;8.98;3.35;;;;;;;;;;5020528;28;20049;-78
2024/01/21 07:55:00;;;;;;;8.93;3.53;;;;;;;;;;5056916;28;20137;-78
2024/01/21 07:57:26;;;;;;;9.13;3.60;;;;;;;;;;5056764;28;20496;-78
2024/01/21 07:59:52;;;;;;;6.63;2.42;;;;;;;;;;5022712;28;20089;-78
2024/01/21 08:02:19;;;;;;;9.30;3.17;;;;;;;;;;5039560;28;20465;-79
2024/01/21 08:04:45;;;;;;;8.18;3.22;;;;;;;;;;5039487;28;20132;-79
2024/01/21 08:07:11;;;;;;;9.90;3.58;;;;;;;;;;5056864;28;20093;-79
2024/01/21 08:09:37;;;;;;;8.55;3.58;;;;;;;;;;5039049;28;20045;-78
2024/01/21 08:12:03;;;;;;;8.73;3.22;;;;;;;;;;5039610;28;20056;-78
2024/01/21 08:14:32;;;;;;;8.35;3.50;;;;;;;;;;5039557;28;20060;-78
2024/01/21 08:16:58;;;;;;;7.68;2.58;;;;;;;;;;5038837;28;20139;-78
2024/01/21 08:19:24;;;;;;;7.07;2.90;;;;;;;;;;5039589;28;20041;-78
2024/01/21 08:21:50;;;;;;;9.15;3.22;;;;;;;;;;5022221;28;20153;-79
2024/01/21 08:24:23;;;;;;;6.75;3.08;;;;;;;;;;5057023;28;20074;-77
2024/01/21 08:26:49;;;;;;;10.27;3.10;;;;;;;;;;5038317;28;20049;-78
2024/01/21 08:29:15;;;;;;;6.55;2.80;;;;;;;;;;5038868;28;20421;-79
2024/01/21 08:31:43;;;;;;;11.65;4.15;;;;;;;;;;5038840;28;20454;-79
2024/01/21 08:34:09;;;;;;;8.52;3.47;;;;;;;;;;5039977;28;20053;-78
2024/01/21 08:36:35;;;;;;;7.07;2.42;;;;;;;;;;5022650;28;20041;-79
2024/01/21 08:39:01;;;;;;;8.68;3.55;;;;;;;;;;5056763;28;20052;-80
2024/01/21 08:41:27;;;;;;;9.10;3.40;;;;;;;;;;5022037;28;20056;-80
2024/01/21 08:43:53;;;;;;;9.98;3.25;;;;;;;;;;5039608;28;20048;-79
2024/01/21 08:46:19;;;;;;;13.05;3.78;;;;;;;;;;5038227;28;20098;-79
2024/01/21 08:48:45;;;;;;;8.32;3.08;;;;;;;;;;5021697;28;20048;-80
2024/01/21 08:51:12;;;;;;;9.57;3.45;;;;;;;;;;5021645;28;20107;-78
2024/01/21 08:53:39;;;;;;;6.63;2.33;;;;;;;;;;5023139;28;20150;-81
2024/01/21 08:56:05;;;;;;;8.93;3.42;;;;;;;;;;5022159;28;20063;-80
2024/01/21 08:58:31;;;;;;;8.38;3.78;;;;;;;;;;5038501;28;20045;-80
2024/01/21 09:00:58;;;;;;;9.35;4.47;;;;;;;;;;5023184;28;20041;-80
2024/01/21 09:03:24;;;;;;;9.07;2.75;;;;;;;;;;5022048;28;20079;-77
2024/01/21 09:05:50;;;;;;;8.38;3.45;;;;;;;;;;5022040;28;20045;-79
2024/01/21 09:08:16;;;;;;;9.32;3.25;;;;;;;;;;5040494;28;20053;-79
2024/01/21 09:10:43;;;;;;;9.15;3.58;;;;;;;;;;5038831;28;20064;-80
2024/01/21 09:13:09;;;;;;;7.53;2.90;;;;;;;;;;5023022;28;20057;-80
2024/01/21 09:15:35;;;;;;;8.90;3.35;;;;;;;;;;5023609;28;20087;-80
2024/01/21 09:18:02;;;;;;;9.43;3.13;;;;;;;;;;5040607;28;20044;-80
2024/01/21 09:20:28;;;;;;;9.65;4.10;;;;;;;;;;5041352;28;20110;-80
2024/01/21 09:22:55;;;;;;;8.20;3.13;;;;;;;;;;5024062;28;20528;-82
2024/01/21 09:25:21;;;;;;;8.77;3.42;;;;;;;;;;5041883;28;20047;-81
2024/01/21 09:27:47;;;;;;;9.20;3.33;;;;;;;;;;5007346;28;20045;-79
2024/01/21 09:30:13;;;;;;;9.40;3.20;;;;;;;;;;5023887;28;20428;-79
2024/01/21 09:32:39;;;;;;;9.68;3.05;;;;;;;;;;5057295;28;20492;-78
2024/01/21 09:35:05;;;;;;;11.40;4.10;;;;;;;;;;5006485;28;20049;-81
2024/01/21 09:37:31;;;;;;;9.23;4.07;;;;;;;;;;5023914;28;20045;-80
2024/01/21 09:39:57;;;;;;;8.60;3.75;;;;;;;;;;5023306;28;20041;-80
2024/01/21 09:42:23;;;;;;;8.88;3.50;;;;;;;;;;5024590;28;20098;-79
2024/01/21 09:44:50;;;;;;;10.30;3.33;;;;;;;;;;5040528;28;20049;-80
2024/01/21 09:47:16;;;;;;;8.82;3.50;;;;;;;;;;5058337;28;20052;-80
2024/01/21 09:49:43;;;;;;;8.38;3.00;;;;;;;;;;5040997;28;20127;-80
2024/01/21 09:52:09;;;;;;;9.68;3.95;;;;;;;;;;5059275;28;20064;-79
2024/01/21 09:54:35;;;;;;;7.65;3.33;;;;;;;;;;5042332;28;20044;-77
2024/01/21 09:57:02;;;;;;;7.47;3.42;;;;;;;;;;5040784;28;20048;-79
2024/01/21 09:59:28;;;;;;;9.10;3.75;;;;;;;;;;5039061;28;20046;-81
2024/01/21 10:01:54;;;;;;;8.82;3.60;;;;;;;;;;5022399;28;20048;-83
2024/01/21 10:04:22;;;;;;;8.55;3.08;;;;;;;;;;5038802;28;20047;-80
2024/01/21 10:06:50;;;;;;;;;;;;;;;;;;5039740;28;20078;-80
2024/01/21 10:09:22;;;;;;;9.10;3.28;;;;;;;;;;5057651;28;20407;-80
2024/01/21 10:11:51;;;;;;;10.20;3.13;;;;;;;;;;5040662;28;20045;-79
2024/01/21 10:14:18;;;;;;;8.65;3.13;;;;;;;;;;5057268;28;20045;-82
2024/01/21 10:16:44;;;;;;;10.55;3.55;;;;;;;;;;5058287;28;20338;-82
2024/01/21 10:19:14;;;;;;;9.77;3.47;;;;;;;;;;5025922;28;20146;-80
2024/01/21 10:21:40;;;;;;;9.18;3.05;;;;;;;;;;5058524;28;20056;-80
2024/01/21 10:24:08;;;;;;;11.13;3.73;;;;;;;;;;5024238;28;20535;-79
2024/01/21 10:26:35;;;;;;;9.70;3.47;;;;;;;;;;5056933;28;20057;-81
2024/01/21 10:29:01;;;;;;;10.68;3.13;;;;;;;;;;5023851;28;20045;-77
2024/01/21 10:31:27;;;;;;;10.32;4.15;;;;;;;;;;5039370;28;20397;-80
2024/01/21 10:33:54;;;;;;;9.85;3.70;;;;;;;;;;5022036;28;20342;-81
2024/01/21 10:36:20;;;;;;;9.10;3.58;;;;;;;;;;5021323;28;20099;-79
2024/01/21 10:38:48;;;;;;;10.77;3.80;;;;;;;;;;5023396;28;20052;-79
2024/01/21 10:41:17;;;;;;;9.15;3.83;;;;;;;;;;5039668;28;20056;-81
2024/01/21 10:43:44;;;;;;;10.02;3.97;;;;;;;;;;5037825;28;20044;-80
2024/01/21 10:46:10;;;;;;;8.23;3.40;;;;;;;;;;5036262;28;20042;-78
2024/01/21 10:48:38;;;;;;;8.77;3.80;;;;;;;;;;5020317;28;20049;-78
2024/01/21 10:51:04;;;;;;;8.82;3.92;;;;;;;;;;5036275;28;20056;-78
2024/01/21 10:53:30;;;;;;;6.90;3.00;;;;;;;;;;5037393;28;20063;-79
2024/01/21 10:56:00;;;;;;;11.00;3.80;;;;;;;;;;5037547;28;20052;-83
2024/01/21 10:58:26;;;;;;;11.18;4.35;;;;;;;;;;5039346;28;20102;-80
2024/01/21 11:01:00;;;;;;;9.23;3.80;;;;;;;;;;5038780;28;20079;-81
2024/01/21 11:03:31;;;;;;;9.90;3.30;;;;;;;;;;5021351;28;20426;-80
2024/01/21 11:06:01;;;;;;;8.85;3.70;;;;;;;;;;5038316;28;20136;-80
2024/01/21 11:08:28;;;;;;;10.35;3.40;;;;;;;;;;5054685;28;20049;-82
2024/01/21 11:11:09;;;;;;;8.88;3.47;;;;;;;;;;5057311;28;20385;-79
2024/01/21 11:13:39;;;;;;;9.48;4.05;;;;;;;;;;5023891;28;20075;-78
2024/01/21 11:16:06;;;;;;;8.02;3.72;;;;;;;;;;5039327;28;20076;-79
2024/01/21 11:18:32;;;;;;;8.63;3.60;;;;;;;;;;5038283;28;20049;-80
2024/01/21 11:21:01;;;;;;;8.35;3.63;;;;;;;;;;5021991;28;20095;-79
2024/01/21 11:23:28;;;;;;;9.02;3.95;;;;;;;;;;5038679;28;20076;-78
2024/01/21 11:25:54;;;;;;;10.02;3.80;;;;;;;;;;5038432;28;20142;-81
2024/01/21 11:28:30;;;;;;;10.30;4.20;;;;;;;;;;5040986;28;20111;-79
2024/01/21 11:31:03;;;;;;;9.75;4.68;;;;;;;;;;5042097;28;20132;-79
2024/01/21 11:33:30;;;;;;;9.32;4.20;;;;;;;;;;5043222;28;20044;-81
2024/01/21 11:35:58;;;;;;;9.52;4.00;;;;;;;;;;5024673;28;20168;-79
2024/01/21 11:38:24;;;;;;;10.43;4.30;;;;;;;;;;5042078;28;20045;-77
2024/01/21 11:41:02;;;;;;;9.75;3.92;;;;;;;;;;5024920;28;20052;-81
2024/01/21 11:43:31;;;;;;;9.65;4.30;;;;;;;;;;5043044;28;20056;-77
2024/01/21 11:45:57;;;;;;;10.60;4.60;;;;;;;;;;5042578;28;20473;-80
2024/01/21 11:48:26;;;;;;;9.88;4.00;;;;;;;;;;5029997;28;20049;-80
2024/01/21 11:50:53;;;;;;;9.98;5.03;;;;;;;;;;5061215;28;20041;-79
2024/01/21 11:53:19;;;;;;;10.50;4.55;;;;;;;;;;5029091;28;20434;-79
2024/01/21 11:55:48;;;;;;;8.65;3.55;;;;;;;;;;5044720;28;20051;-82
2024/01/21 11:58:15;;;;;;;10.50;5.07;;;;;;;;;;5045080;28;20049;-81
2024/01/21 12:00:41;;;;;;;8.25;3.30;;;;;;;;;;5028071;28;20043;-79
2024/01/21 12:03:07;;;;;;;11.45;4.55;;;;;;;;;;5025792;28;20051;-80
2024/01/21 12:05:36;;;;;;;9.70;4.63;;;;;;;;;;5027804;28;20098;-80
2024/01/21 12:08:03;;;;;;;9.43;3.40;;;;;;;;;;5041706;28;20060;-79
2024/01/21 12:10:29;;;;;;;10.45;4.45;;;;;;;;;;5026676;28;20275;-79
2024/01/21 12:12:55;;;;;;;12.02;4.38;;;;;;;;;;5025389;28;20053;-80
2024/01/21 12:15:21;;;;;;;8.85;3.80;;;;;;;;;;5059443;28;20041;-78
2024/01/21 12:17:57;;;;;;;10.10;4.55;;;;;;;;;;5042039;28;20051;-80
2024/01/21 12:20:23;;;;;;;10.68;4.70;;;;;;;;;;5026224;28;20049;-81
2024/01/21 12:22:50;;;;;;;9.02;3.90;;;;;;;;;;5024866;28;20108;-79
2024/01/21 12:25:17;;;;;;;11.48;4.40;;;;;;;;;;5024353;28;20045;-77
2024/01/21 12:27:44;;;;;;;9.90;4.10;;;;;;;;;;5039549;28;20103;-79
2024/01/21 12:30:14;;;;;;;9.00;3.78;;;;;;;;;;5057335;28;20060;-79
2024/01/21 12:32:41;;;;;;;10.05;4.95;;;;;;;;;;5039264;28;20057;-78
2024/01/21 12:35:07;;;;;;;8.73;3.55;;;;;;;;;;5055710;28;20037;-80
2024/01/21 12:37:34;;;;;;;12.07;4.38;;;;;;;;;;5038477;28;20076;-77
2024/01/21 12:40:00;;;;;;;10.20;4.63;;;;;;;;;;5037403;28;20074;-77
2024/01/21 12:42:27;;;;;;;9.88;4.53;;;;;;;;;;5038597;28;20351;-78
2024/01/21 12:44:53;;;;;;;10.13;4.25;;;;;;;;;;5021429;28;20052;-77
2024/01/21 12:47:19;;;;;;;10.55;4.55;;;;;;;;;;5055366;28;20061;-76
2024/01/21 12:49:45;;;;;;;10.65;4.07;;;;;;;;;;5055629;28;20045;-76
2024/01/21 12:52:12;;;;;;;10.52;4.35;;;;;;;;;;5021469;28;20371;-80
2024/01/21 12:54:38;;;;;;;9.85;4.72;;;;;;;;;;5037683;28;20409;-76
2024/01/21 12:57:04;;;;;;;10.30;4.35;;;;;;;;;;5020988;28;20049;-76
2024/01/21 12:59:30;;;;;;;10.93;4.90;;;;;;;;;;5021205;28;20088;-77
2024/01/21 13:01:57;;;;;;;11.65;5.20;;;;;;;;;;5021179;28;20068;-78
2024/01/21 13:04:23;;;;;;;8.05;3.38;;;;;;;;;;5055649;28;20063;-78
2024/01/21 13:06:49;;;;;;;11.00;4.18;;;;;;;;;;5037244;28;20132;-77
2024/01/21 13:09:16;;;;;;;10.63;4.88;;;;;;;;;;5054801;28;20049;-80
2024/01/21 13:11:42;;;;;;;11.70;5.13;;;;;;;;;;5037561;28;20443;-78
2024/01/21 13:14:08;;;;;;;13.63;5.10;;;;;;;;;;5037458;28;20053;-77
2024/01/21 13:16:34;;;;;;;9.82;4.60;;;;;;;;;;5054880;28;20072;-77
2024/01/21 13:19:01;;;;;;;10.27;4.38;;;;;;;;;;5020739;28;20060;-76
2024/01/21 13:21:27;;;;;;;9.30;3.90;;;;;;;;;;5037167;28;20112;-78
2024/01/21 13:23:53;;;;;;;16.35;5.22;;;;;;;;;;5037109;28;20048;-78
2024/01/21 13:26:19;;;;;;;13.93;5.00;;;;;;;;;;5036635;28;20106;-78
2024/01/21 13:30:43;;;;;;;12.15;5.72;;;;;;;;;;5037157;28;20057;-77
2024/01/21 13:31:36;;;;;;;11.23;5.38;;;;;;;;;;5054138;28;20489;-76
2024/01/21 13:34:02;;;;;;;13.68;5.13;;;;;;;;;;5037735;28;20057;-76
2024/01/21 13:36:29;;;;;;;13.17;5.40;;;;;;;;;;5037248;28;20072;-78
2024/01/21 13:38:56;;;;;;;12.77;5.13;;;;;;;;;;5036936;28;20048;-78
2024/01/21 13:41:22;;;;;;;10.70;5.35;;;;;;;;;;5036810;28;20045;-75
2024/01/21 13:43:48;;;;;;;12.23;5.03;;;;;;;;;;5054372;28;20049;-77
2024/01/21 13:46:15;;;;;;;11.13;4.38;;;;;;;;;;5054355;28;20040;-76
2024/01/21 13:48:42;;;;;;;11.55;4.95;;;;;;;;;;5054489;28;20155;-78
2024/01/21 13:51:09;;;;;;;9.33;4.33;;;;;;;;;;5036900;28;20053;-78
2024/01/21 13:53:36;;;;;;;12.13;4.90;;;;;;;;;;5037687;28;20598;-78
2024/01/21 13:56:03;;;;;;;15.07;5.57;;;;;;;;;;5036518;28;20489;-78
2024/01/21 13:58:29;;;;;;;10.15;4.60;;;;;;;;;;5020320;28;20092;-79
2024/01/21 14:00:55;;;;;;;15.85;5.97;;;;;;;;;;5054847;28;20040;-78
2024/01/21 14:03:22;;;;;;;13.55;5.15;;;;;;;;;;5055609;28;20137;-78
2024/01/21 14:05:48;;;;;;;16.08;5.90;;;;;;;;;;5037996;28;20037;-78
2024/01/21 14:08:14;;;;;;;11.85;4.40;;;;;;;;;;5021336;28;20049;-76
2024/01/21 14:10:40;;;;;;;14.80;4.50;;;;;;;;;;5020527;28;20060;-78
2024/01/21 14:13:06;;;;;;;11.65;5.50;;;;;;;;;;5055872;28;20049;-79
2024/01/21 14:15:32;;;;;;;13.32;6.25;;;;;;;;;;5020796;28;20094;-77
2024/01/21 14:18:01;;;;;;;14.73;5.95;;;;;;;;;;5055306;28;20143;-77
2024/01/21 14:20:27;;;;;;;11.23;5.32;;;;;;;;;;5020636;28;20088;-78
2024/01/21 14:22:54;;;;;;;10.35;5.00;;;;;;;;;;5055341;28;20049;-77
2024/01/21 14:25:24;;;;;;;11.13;4.95;;;;;;;;;;5055004;28;20087;-78
2024/01/21 14:27:50;;;;;;;12.80;5.75;;;;;;;;;;5037994;28;20053;-78
2024/01/21 14:30:17;;;;;;;11.75;4.70;;;;;;;;;;5056091;28;20102;-78
2024/01/21 14:32:44;;;;;;;14.40;5.70;;;;;;;;;;5056160;28;20390;-78
2024/01/21 14:35:10;;;;;;;13.82;5.20;;;;;;;;;;5020776;28;20053;-78